Maskinonge, Canada
Current Conditions -  °F | °C
As of 1:00 PM on Thursday 27 Nov 2014 (Local Time) from CYRQ Reporting Station
Clear Clear  
Wind Chill: 23°   Ceiling: Unl
Heat Index: 28°   Visibility: 9mi
Dew Point: 12°   Wind: 5mph
Humidity: 51%   Direction: 360°N
Pressure: 30.01"   Gusts: NA
Location:  46.22°N, 73.02°W
Report Text: CYRQ 271800Z AUTO 36004KT 240V040 9SM CLR M02/M11 A3001 RMK SLP167
Loading
Personal Weather Stations






























Interactive Weather Map New forecast layout! Learn more

10-Day Weather Forecast

Advertisements
Track Severe Weather on mobile